Time;durP1;ratioP1;P1;durP2;ratioP2;P2;SDS_P1;SDS_P2;PMS_P1;PMS_P2;Temp;Humidity;BMP_temperature;BMP_pressure;BME280_temperature;BME280_humidity;BME280_pressure;Samples;Min_cycle;Max_cycle;Signal;HPM_P1;HPM_P2
2021/04/04 00:00:52;;;;;;;10.00;5.05;;;6.40;90.10;;;;;;5025665;28;20539;-73
2021/04/04 00:03:18;;;;;;;9.70;4.95;;;6.40;90.20;;;;;;5023459;28;20045;-73
2021/04/04 00:05:43;;;;;;;10.73;4.50;;;6.40;90.20;;;;;;5025542;28;20383;-73
2021/04/04 00:08:09;;;;;;;11.15;4.63;;;6.30;90.40;;;;;;5023262;28;20033;-73
2021/04/04 00:10:34;;;;;;;9.52;3.92;;;6.30;90.80;;;;;;5025007;28;20344;-73
2021/04/04 00:13:00;;;;;;;9.73;4.60;;;6.20;90.80;;;;;;5024200;28;20493;-73
2021/04/04 00:15:26;;;;;;;10.20;4.68;;;6.20;90.90;;;;;;5024617;28;20291;-73
2021/04/04 00:17:51;;;;;;;10.38;4.70;;;6.20;91.30;;;;;;5024400;28;20076;-73
2021/04/04 00:20:18;;;;;;;8.88;4.55;;;6.20;91.20;;;;;;5025383;28;20049;-79
2021/04/04 00:22:45;;;;;;;10.13;3.80;;;6.10;91.00;;;;;;5024744;28;20037;-73
2021/04/04 00:25:13;;;;;;;9.65;4.72;;;6.10;90.90;;;;;;5021264;28;20184;-73
2021/04/04 00:27:39;;;;;;;8.38;4.28;;;6.00;91.50;;;;;;5024038;28;20466;-73
2021/04/04 00:30:10;;;;;;;11.10;4.38;;;6.10;91.30;;;;;;5025058;28;20072;-73
2021/04/04 00:32:36;;;;;;;9.80;4.50;;;6.00;91.30;;;;;;5020975;28;20053;-73
2021/04/04 00:35:08;;;;;;;8.98;4.32;;;6.00;91.60;;;;;;5024685;28;20029;-73
2021/04/04 00:37:33;;;;;;;10.63;4.50;;;5.90;91.70;;;;;;5020341;28;20036;-73
2021/04/04 00:39:59;;;;;;;9.48;3.67;;;6.00;91.80;;;;;;5026184;28;20030;-73
2021/04/04 00:42:25;;;;;;;9.30;4.07;;;5.90;91.70;;;;;;5023621;28;20037;-73
2021/04/04 00:44:52;;;;;;;10.43;4.10;;;5.90;92.00;;;;;;5025056;28;20584;-73
2021/04/04 00:47:18;;;;;;;8.77;3.92;;;5.90;92.10;;;;;;5024724;28;20056;-73
2021/04/04 00:49:43;;;;;;;6.32;3.47;;;5.90;92.80;;;;;;5020609;28;20025;-73
2021/04/04 00:52:09;;;;;;;6.55;4.00;;;5.90;92.50;;;;;;5024237;28;20038;-73
2021/04/04 00:54:34;;;;;;;10.60;4.22;;;6.00;92.50;;;;;;5023947;28;20144;-73
2021/04/04 00:57:00;;;;;;;6.47;3.42;;;5.80;92.40;;;;;;5025043;28;20090;-73
2021/04/04 00:59:26;;;;;;;7.95;3.78;;;5.90;92.00;;;;;;5023289;28;20523;-73
2021/04/04 01:01:52;;;;;;;11.63;3.72;;;5.80;92.00;;;;;;5021493;28;20041;-73
2021/04/04 01:04:17;;;;;;;7.07;3.80;;;5.70;92.20;;;;;;5026129;28;20391;-73
2021/04/04 01:06:43;;;;;;;13.60;4.22;;;5.70;92.10;;;;;;5028343;28;20045;-73
2021/04/04 01:09:09;;;;;;;8.93;3.80;;;5.70;92.40;;;;;;5027214;28;20406;-73
2021/04/04 01:11:53;;;;;;;8.57;3.63;;;5.60;92.30;;;;;;5027909;28;20144;-73
2021/04/04 01:14:32;;;;;;;11.82;3.92;;;5.50;92.50;;;;;;5022137;28;20026;-73
2021/04/04 01:17:02;;;;;;;9.25;3.70;;;5.60;92.60;;;;;;5028140;28;20480;-73
2021/04/04 01:20:02;;;;;;;6.57;3.67;;;5.60;92.40;;;;;;5027108;28;20555;-73
2021/04/04 01:22:58;;;;;;;6.65;3.67;;;5.50;92.40;;;;;;5027758;28;20044;-73
2021/04/04 01:25:37;;;;;;;10.90;3.78;;;5.50;92.70;;;;;;5024167;28;20033;-73
2021/04/04 01:28:08;;;;;;;8.68;3.88;;;5.50;92.70;;;;;;5024465;28;20083;-73
2021/04/04 01:30:38;;;;;;;8.85;4.18;;;5.50;92.60;;;;;;5027644;28;20078;-73
2021/04/04 01:33:05;;;;;;;11.32;3.80;;;5.40;92.50;;;;;;5025058;28;20049;-73
2021/04/04 01:35:35;;;;;;;8.63;3.38;;;5.40;92.50;;;;;;5027232;28;20055;-73
2021/04/04 01:38:10;;;;;;;6.20;3.47;;;5.40;92.60;;;;;;5028988;28;20040;-73
2021/04/04 01:40:36;;;;;;;10.63;3.97;;;5.40;92.60;;;;;;5027324;28;20533;-73
2021/04/04 01:43:05;;;;;;;8.35;3.45;;;5.40;92.70;;;;;;5028415;28;20219;-73
2021/04/04 01:45:31;;;;;;;9.15;3.92;;;5.40;92.70;;;;;;5027315;28;20415;-73
2021/04/04 01:47:58;;;;;;;7.97;3.78;;;5.40;92.60;;;;;;5029362;28;20045;-73
2021/04/04 01:50:25;;;;;;;8.98;4.05;;;5.30;92.40;;;;;;5026625;28;20550;-73
2021/04/04 01:52:52;;;;;;;10.05;4.55;;;5.30;92.50;;;;;;5028089;28;20077;-73
2021/04/04 01:55:18;;;;;;;8.88;4.13;;;5.30;92.60;;;;;;5026058;28;20049;-73
2021/04/04 01:57:47;;;;;;;10.70;4.45;;;5.30;92.70;;;;;;5027828;28;20033;-73
2021/04/04 02:00:19;;;;;;;7.15;3.97;;;5.30;93.00;;;;;;5026925;28;20025;-73
2021/04/04 02:02:46;;;;;;;8.98;3.45;;;5.20;92.80;;;;;;5027658;28;20164;-73
2021/04/04 02:05:14;;;;;;;10.32;4.15;;;5.10;93.50;;;;;;5027421;28;20045;-73
2021/04/04 02:07:42;;;;;;;8.02;3.97;;;4.90;94.00;;;;;;5025923;28;20038;-73
2021/04/04 02:10:11;;;;;;;9.77;4.18;;;5.00;93.90;;;;;;5027212;28;20407;-73
2021/04/04 02:12:37;;;;;;;9.20;4.40;;;5.00;93.60;;;;;;5021952;28;20047;-73
2021/04/04 02:15:08;;;;;;;8.70;4.70;;;5.10;93.60;;;;;;5025795;28;20095;-73
2021/04/04 02:17:36;;;;;;;10.07;3.88;;;5.10;93.80;;;;;;5024060;28;20033;-73
2021/04/04 02:20:09;;;;;;;8.93;4.57;;;5.10;93.70;;;;;;5026085;28;20041;-73
2021/04/04 02:22:37;;;;;;;10.57;4.60;;;5.00;93.70;;;;;;5026326;28;20041;-73
2021/04/04 02:25:04;;;;;;;8.80;4.65;;;5.00;93.90;;;;;;5025662;28;20048;-73
2021/04/04 02:27:30;;;;;;;7.40;3.90;;;4.90;94.00;;;;;;5027800;28;20136;-72
2021/04/04 02:29:56;;;;;;;8.45;4.65;;;4.90;94.00;;;;;;5022617;28;20120;-73
2021/04/04 02:32:25;;;;;;;9.27;4.55;;;5.00;93.80;;;;;;5024017;28;20052;-73
2021/04/04 02:34:56;;;;;;;9.30;4.57;;;4.90;93.70;;;;;;5026460;28;20021;-73
2021/04/04 02:37:22;;;;;;;8.68;4.43;;;4.90;93.70;;;;;;5025563;28;20048;-73
2021/04/04 02:39:52;;;;;;;9.32;4.95;;;5.00;93.70;;;;;;5026895;28;20025;-73
2021/04/04 02:42:21;;;;;;;10.73;5.35;;;4.90;93.70;;;;;;5026375;28;20132;-73
2021/04/04 02:44:50;;;;;;;13.43;5.35;;;4.90;93.80;;;;;;5026944;28;20030;-73
2021/04/04 02:47:22;;;;;;;10.18;5.35;;;4.80;94.00;;;;;;5026518;28;20033;-73
2021/04/04 02:49:51;;;;;;;8.60;4.70;;;4.80;94.10;;;;;;5026985;28;20036;-73
2021/04/04 02:52:20;;;;;;;10.13;5.57;;;4.70;94.10;;;;;;5026039;28;20490;-73
2021/04/04 02:54:51;;;;;;;9.23;5.22;;;4.60;94.50;;;;;;5026820;28;20402;-73
2021/04/04 02:57:18;;;;;;;9.70;5.28;;;4.60;94.50;;;;;;5024982;28;20189;-73
2021/04/04 02:59:49;;;;;;;8.90;5.85;;;4.60;94.20;;;;;;5026616;28;20051;-73
2021/04/04 03:02:18;;;;;;;9.02;5.40;;;4.60;94.30;;;;;;5025503;28;20478;-73
2021/04/04 03:04:47;;;;;;;10.05;5.53;;;4.50;94.80;;;;;;5026403;28;20037;-73
2021/04/04 03:07:18;;;;;;;13.80;5.55;;;4.50;94.60;;;;;;5025033;28;20037;-73
2021/04/04 03:09:45;;;;;;;12.45;6.32;;;4.50;94.50;;;;;;5026061;28;20036;-73
2021/04/04 03:12:13;;;;;;;9.52;5.30;;;4.40;94.80;;;;;;5024479;28;20037;-73
2021/04/04 03:14:41;;;;;;;11.55;5.70;;;4.40;94.70;;;;;;5026767;28;20032;-73
2021/04/04 03:17:08;;;;;;;8.77;4.88;;;4.50;94.70;;;;;;5025602;28;20032;-73
2021/04/04 03:19:37;;;;;;;13.43;5.97;;;4.50;94.60;;;;;;5027186;28;20037;-73
2021/04/04 03:22:03;;;;;;;11.05;5.60;;;4.50;94.70;;;;;;5024997;28;20080;-73
2021/04/04 03:24:30;;;;;;;12.85;5.78;;;4.50;94.80;;;;;;5024860;28;20301;-73
2021/04/04 03:26:56;;;;;;;11.77;5.50;;;4.40;94.90;;;;;;5025279;28;20037;-73
2021/04/04 03:29:22;;;;;;;11.70;5.93;;;4.40;95.00;;;;;;5026564;28;20033;-73
2021/04/04 03:31:49;;;;;;;12.25;5.55;;;4.30;95.20;;;;;;5025866;28;20056;-73
2021/04/04 03:34:17;;;;;;;13.85;5.47;;;4.30;95.40;;;;;;5025598;28;20113;-73
2021/04/04 03:36:43;;;;;;;10.73;5.50;;;4.30;95.60;;;;;;5026386;28;20038;-73
2021/04/04 03:39:09;;;;;;;12.82;5.13;;;4.20;95.60;;;;;;5025117;28;20056;-73
2021/04/04 03:41:36;;;;;;;8.93;5.13;;;4.20;95.60;;;;;;5024381;28;20041;-73
2021/04/04 03:44:03;;;;;;;13.70;4.80;;;4.20;95.80;;;;;;5025370;28;20042;-73
2021/04/04 03:46:31;;;;;;;7.88;4.20;;;4.20;95.90;;;;;;5025977;28;20104;-73
2021/04/04 03:48:59;;;;;;;10.70;5.57;;;4.20;95.60;;;;;;5024811;28;20040;-73
2021/04/04 03:51:26;;;;;;;18.05;6.60;;;4.10;96.10;;;;;;5025261;28;20037;-73
2021/04/04 03:53:54;;;;;;;14.35;6.05;;;3.90;96.70;;;;;;5020795;28;20038;-73
2021/04/04 03:56:29;;;;;;;11.38;5.82;;;3.90;96.90;;;;;;5025399;28;20037;-73
2021/04/04 03:58:57;;;;;;;12.52;5.15;;;3.90;96.80;;;;;;5021124;28;20029;-73
2021/04/04 04:01:25;;;;;;;9.88;5.32;;;4.00;96.60;;;;;;5025617;28;20046;-73
2021/04/04 04:03:52;;;;;;;8.27;4.18;;;4.10;96.30;;;;;;5024699;28;20044;-73
2021/04/04 04:06:18;;;;;;;9.27;5.03;;;4.10;96.00;;;;;;5025468;28;20041;-73
2021/04/04 04:08:44;;;;;;;11.60;6.10;;;4.10;95.90;;;;;;5024975;28;20084;-73
2021/04/04 04:11:11;;;;;;;10.82;5.45;;;4.10;95.80;;;;;;5025962;28;20029;-73
2021/04/04 04:13:39;;;;;;;13.15;4.85;;;4.10;95.90;;;;;;5026517;28;20044;-73
2021/04/04 04:16:06;;;;;;;10.93;5.22;;;4.10;96.00;;;;;;5025983;28;20021;-73
2021/04/04 04:18:33;;;;;;;9.80;5.50;;;4.00;96.10;;;;;;5026367;28;20509;-73
2021/04/04 04:20:59;;;;;;;9.45;5.32;;;4.00;96.00;;;;;;5025767;28;20049;-73
2021/04/04 04:23:25;;;;;;;11.88;5.05;;;4.00;96.00;;;;;;5024797;28;20026;-73
2021/04/04 04:25:53;;;;;;;13.35;5.78;;;4.10;95.90;;;;;;5024945;28;20526;-73
2021/04/04 04:28:19;;;;;;;10.73;5.32;;;4.10;95.80;;;;;;5025042;28;20443;-73
2021/04/04 04:30:45;;;;;;;11.80;5.68;;;4.00;96.00;;;;;;5025436;28;20021;-74
2021/04/04 04:33:16;;;;;;;13.70;5.90;;;4.00;96.10;;;;;;5024208;28;20044;-73
2021/04/04 04:35:45;;;;;;;11.15;5.88;;;4.00;95.90;;;;;;5022575;28;20044;-73
2021/04/04 04:38:11;;;;;;;12.00;5.65;;;4.10;96.00;;;;;;5024866;28;20095;-73
2021/04/04 04:40:37;;;;;;;14.45;6.32;;;4.10;95.80;;;;;;5025500;28;20450;-74
2021/04/04 04:43:05;;;;;;;10.77;5.38;;;4.00;96.00;;;;;;5025242;28;20041;-73
2021/04/04 04:45:35;;;;;;;10.23;4.90;;;4.00;95.90;;;;;;5026026;28;20025;-73
2021/04/04 04:48:01;;;;;;;10.30;5.90;;;4.00;96.10;;;;;;5021017;28;20534;-73
2021/04/04 04:50:28;;;;;;;13.77;5.85;;;3.90;96.20;;;;;;5025627;28;20065;-73
2021/04/04 04:52:57;;;;;;;13.18;5.85;;;3.90;96.10;;;;;;5024485;28;20087;-73
2021/04/04 04:55:24;;;;;;;13.25;5.40;;;3.90;96.00;;;;;;5022603;28;20057;-73
2021/04/04 04:57:50;;;;;;;12.82;6.18;;;3.90;96.00;;;;;;5025400;28;20063;-73
2021/04/04 05:00:17;;;;;;;12.02;5.72;;;3.90;96.10;;;;;;5024068;28;20025;-73
2021/04/04 05:02:44;;;;;;;14.40;6.55;;;3.80;96.10;;;;;;5024990;28;20038;-73
2021/04/04 05:05:13;;;;;;;10.07;6.28;;;3.90;96.20;;;;;;5024579;28;20021;-73
2021/04/04 05:07:40;;;;;;;11.25;5.40;;;3.80;96.30;;;;;;5023360;28;20041;-73
2021/04/04 05:10:07;;;;;;;10.38;5.30;;;3.80;96.50;;;;;;5024599;28;20033;-73
2021/04/04 05:12:36;;;;;;;9.90;4.60;;;3.70;96.50;;;;;;5023788;28;20384;-73
2021/04/04 05:15:03;;;;;;;9.82;4.97;;;3.60;96.70;;;;;;5025192;28;20512;-73
2021/04/04 05:17:36;;;;;;;9.30;4.80;;;3.60;96.70;;;;;;5023934;28;20029;-73
2021/04/04 05:20:04;;;;;;;11.20;5.32;;;3.60;96.90;;;;;;5025969;28;20045;-73
2021/04/04 05:22:30;;;;;;;12.10;5.18;;;3.60;97.20;;;;;;5024244;28;20045;-79
2021/04/04 05:24:59;;;;;;;9.90;5.18;;;3.50;97.40;;;;;;5025191;28;20029;-73
2021/04/04 05:27:25;;;;;;;10.05;5.20;;;3.50;97.50;;;;;;5023581;28;20047;-73
2021/04/04 05:29:51;;;;;;;12.48;5.32;;;3.60;97.50;;;;;;5024832;28;20041;-73
2021/04/04 05:32:17;;;;;;;11.30;6.18;;;3.60;97.30;;;;;;5024200;28;20049;-73
2021/04/04 05:34:43;;;;;;;13.07;5.97;;;3.60;97.20;;;;;;5024051;28;20478;-79
2021/04/04 05:37:09;;;;;;;12.13;6.00;;;3.70;97.10;;;;;;5021983;28;20037;-73
2021/04/04 05:39:38;;;;;;;12.00;5.82;;;3.70;97.20;;;;;;5024667;28;20033;-73
2021/04/04 05:42:06;;;;;;;12.50;5.65;;;3.70;97.20;;;;;;5024226;28;20206;-73
2021/04/04 05:44:33;;;;;;;12.38;5.85;;;3.70;97.20;;;;;;5025337;28;20034;-73
2021/04/04 05:47:04;;;;;;;10.25;5.53;;;3.70;97.20;;;;;;5024920;28;20038;-73
2021/04/04 05:50:03;;;;;;;10.82;6.10;;;3.70;97.30;;;;;;5022339;28;20574;-73
2021/04/04 05:52:42;;;;;;;11.23;5.85;;;3.70;97.30;;;;;;5021694;28;20049;-73
2021/04/04 05:55:44;;;;;;;12.15;6.32;;;3.70;97.40;;;;;;5026612;28;20549;-73
2021/04/04 05:58:22;;;;;;;16.40;8.45;;;3.70;97.60;;;;;;5026982;28;20097;-73
2021/04/04 06:00:52;;;;;;;16.38;8.20;;;3.70;97.40;;;;;;5026012;28;20517;-73
2021/04/04 06:03:42;;;;;;;14.20;7.78;;;3.70;97.80;;;;;;5026430;28;20463;-73
2021/04/04 06:06:33;;;;;;;12.57;6.55;;;3.70;97.90;;;;;;5026488;28;20057;-79
2021/04/04 06:09:14;;;;;;;12.23;6.55;;;3.60;98.10;;;;;;5023089;28;20029;-73
2021/04/04 06:12:04;;;;;;;15.00;6.05;;;3.60;98.20;;;;;;5022436;28;20040;-73
2021/04/04 06:15:00;;;;;;;13.38;6.70;;;3.70;98.20;;;;;;5025642;28;20032;-73
2021/04/04 06:17:35;;;;;;;10.77;6.28;;;3.70;98.30;;;;;;5025422;28;20041;-73
2021/04/04 06:20:13;;;;;;;13.75;6.82;;;3.60;98.40;;;;;;5027908;28;20053;-73
2021/04/04 06:22:44;;;;;;;10.38;6.13;;;3.80;98.40;;;;;;5025867;28;20039;-73
2021/04/04 06:25:27;;;;;;;14.63;6.80;;;3.90;98.40;;;;;;5027699;28;20029;-73
2021/04/04 06:28:23;;;;;;;14.43;7.25;;;4.10;98.30;;;;;;5028041;28;20038;-73
2021/04/04 06:30:58;;;;;;;14.60;6.25;;;4.30;98.20;;;;;;5025490;28;20037;-73
2021/04/04 06:33:25;;;;;;;12.65;6.70;;;4.60;97.70;;;;;;5026429;28;20052;-73
2021/04/04 06:36:03;;;;;;;10.82;5.70;;;4.80;97.10;;;;;;5024133;28;20376;-73
2021/04/04 06:39:05;;;;;;;10.25;5.82;;;5.00;96.60;;;;;;5027012;28;20493;-72
2021/04/04 06:41:49;;;;;;;11.40;5.95;;;5.10;96.40;;;;;;5025215;28;20064;-73
2021/04/04 06:44:45;;;;;;;10.82;5.93;;;5.40;96.00;;;;;;5023410;28;20045;-73
2021/04/04 06:47:43;;;;;;;10.60;6.50;;;5.60;95.50;;;;;;5023168;28;20426;-73
2021/04/04 06:50:17;;;;;;;13.63;5.97;;;5.80;95.20;;;;;;5024552;28;20029;-74
2021/04/04 06:53:13;;;;;;;12.25;5.90;;;5.90;94.90;;;;;;5028376;28;20033;-73
2021/04/04 06:56:06;;;;;;;11.50;5.35;;;6.20;94.70;;;;;;5023406;28;20063;-73
2021/04/04 06:58:43;;;;;;;11.48;5.80;;;6.40;94.50;;;;;;5026339;28;20564;-73
2021/04/04 07:01:38;;;;;;;14.27;5.85;;;6.50;93.80;;;;;;5026111;28;20474;-73
2021/04/04 07:04:27;;;;;;;9.57;5.40;;;6.70;93.60;;;;;;5027135;28;20675;-73
2021/04/04 07:06:55;;;;;;;13.05;7.35;;;6.90;93.30;;;;;;4980687;28;20037;-78
2021/04/04 07:09:38;;;;;;;14.73;6.13;;;7.00;93.10;;;;;;5024152;28;20030;-74
2021/04/04 07:12:10;;;;;;;11.27;5.60;;;6.90;92.60;;;;;;5024621;28;20033;-73
2021/04/04 07:14:59;;;;;;;9.67;5.23;;;7.00;92.30;;;;;;5025282;28;20041;-73
2021/04/04 07:17:38;;;;;;;11.07;5.80;;;7.10;91.80;;;;;;5026063;28;20065;-73
2021/04/04 07:20:47;;;;;;;10.13;5.07;;;7.00;92.30;;;;;;5025306;28;20406;-73
2021/04/04 07:23:27;;;;;;;11.75;4.75;;;7.30;91.60;;;;;;4961550;28;20077;-73
2021/04/04 07:26:23;;;;;;;9.18;5.38;;;7.40;90.70;;;;;;5016506;28;20050;-73
2021/04/04 07:28:54;;;;;;;9.05;4.82;;;7.50;90.70;;;;;;5009712;28;20045;-73
2021/04/04 07:31:27;;;;;;;10.05;4.43;;;7.40;91.00;;;;;;5025224;28;20072;-73
2021/04/04 07:34:32;;;;;;;11.48;4.82;;;7.30;90.00;;;;;;5026319;28;20033;-73
2021/04/04 07:37:02;;;;;;;12.00;5.40;;;7.20;90.70;;;;;;5001742;28;20749;-79
2021/04/04 07:39:37;;;;;;;10.40;4.80;;;7.80;90.00;;;;;;5024107;28;20021;-73
2021/04/04 07:42:07;;;;;;;12.60;5.22;;;8.00;89.40;;;;;;5024708;28;20041;-75
2021/04/04 07:44:42;;;;;;;9.55;5.22;;;8.40;88.60;;;;;;5023359;28;20021;-73
2021/04/04 07:47:35;;;;;;;11.07;5.15;;;8.60;86.60;;;;;;5025382;28;20128;-73
2021/04/04 07:50:08;;;;;;;10.43;4.90;;;8.80;86.80;;;;;;5025955;28;20055;-74
2021/04/04 07:52:52;;;;;;;12.10;5.18;;;8.60;85.20;;;;;;5029467;28;20458;-73
2021/04/04 07:55:30;;;;;;;10.40;5.15;;;8.90;86.20;;;;;;5028719;28;20045;-74
2021/04/04 07:58:11;;;;;;;8.65;4.88;;;8.90;84.40;;;;;;5029101;28;20056;-74
2021/04/04 08:00:41;;;;;;;10.98;4.55;;;8.70;84.30;;;;;;5027140;28;20036;-73
2021/04/04 08:03:22;;;;;;;8.93;4.57;;;9.00;84.90;;;;;;5027414;28;20197;-73
2021/04/04 08:05:51;;;;;;;8.80;4.82;;;9.30;84.80;;;;;;5027854;28;20026;-73
2021/04/04 08:08:30;;;;;;;9.02;4.80;;;9.50;82.50;;;;;;5029078;28;20029;-74
2021/04/04 08:10:58;;;;;;;11.55;4.80;;;8.80;81.70;;;;;;5028061;28;20141;-73
2021/04/04 08:13:36;;;;;;;11.63;4.65;;;8.70;84.60;;;;;;5029025;28;20045;-73
2021/04/04 08:16:42;;;;;;;9.50;4.05;;;9.10;84.20;;;;;;5022612;28;20057;-73
2021/04/04 08:19:09;;;;;;;9.13;4.45;;;8.70;82.80;;;;;;5005440;28;20033;-74
2021/04/04 08:21:39;;;;;;;10.52;4.57;;;8.50;84.00;;;;;;5021805;28;20120;-73
2021/04/04 08:24:09;;;;;;;9.75;5.32;;;8.20;86.00;;;;;;5021490;28;20041;-73
2021/04/04 08:27:00;;;;;;;16.70;6.22;;;8.70;86.10;;;;;;5022263;28;20029;-74
2021/04/04 08:29:37;;;;;;;8.73;5.37;;;7.90;87.00;;;;;;5022711;28;20057;-73
2021/04/04 08:32:09;;;;;;;7.90;4.57;;;8.00;87.10;;;;;;5017858;28;20843;-73
2021/04/04 08:34:45;;;;;;;9.02;4.30;;;8.80;86.40;;;;;;5023457;28;20140;-73
2021/04/04 08:37:24;;;;;;;9.50;4.35;;;9.20;84.70;;;;;;5022699;28;20037;-79
2021/04/04 08:39:59;;;;;;;10.88;5.00;;;9.40;85.60;;;;;;5021331;28;20033;-73
2021/04/04 08:42:27;;;;;;;9.27;4.60;;;9.80;84.30;;;;;;5015953;28;20037;-73
2021/04/04 08:45:14;;;;;;;9.93;4.82;;;10.10;83.20;;;;;;5019896;28;20064;-74
2021/04/04 08:47:47;;;;;;;10.63;4.85;;;10.40;82.70;;;;;;5017657;28;20036;-73
2021/04/04 08:50:22;;;;;;;8.52;4.90;;;10.20;80.40;;;;;;5020456;28;20113;-73
2021/04/04 08:52:54;;;;;;;10.75;4.85;;;10.60;81.40;;;;;;5021705;28;20037;-73
2021/04/04 08:55:23;;;;;;;;;;;10.60;80.60;;;;;;5020308;28;20076;-72
2021/04/04 08:57:52;;;;;;;10.35;4.35;;;10.90;79.50;;;;;;5020141;28;19916;-74
2021/04/04 09:00:23;;;;;;;10.55;4.38;;;10.80;79.30;;;;;;5018592;28;20490;-73
2021/04/04 09:03:07;;;;;;;9.65;4.75;;;10.90;78.60;;;;;;5021819;28;20033;-73
2021/04/04 09:05:34;;;;;;;10.68;4.40;;;10.30;78.80;;;;;;5021338;28;20095;-73
2021/04/04 09:08:04;;;;;;;7.32;4.13;;;10.60;78.30;;;;;;5022554;28;20064;-78
2021/04/04 09:10:33;;;;;;;10.85;4.88;;;11.00;78.30;;;;;;5023201;28;20128;-76
2021/04/04 09:12:59;;;;;;;10.95;5.00;;;11.20;76.30;;;;;;5023773;28;20040;-76
2021/04/04 09:15:27;;;;;;;14.43;4.70;;;11.00;75.30;;;;;;5021666;28;20467;-75
2021/04/04 09:17:56;;;;;;;10.45;4.80;;;10.80;76.40;;;;;;5023880;28;20075;-75
2021/04/04 09:20:38;;;;;;;10.85;4.60;;;10.40;79.40;;;;;;5026057;28;20137;-77
2021/04/04 09:23:05;;;;;;;46.65;6.35;;;10.70;77.80;;;;;;5026632;28;20124;-75
2021/04/04 09:25:32;;;;;;;8.30;4.18;;;10.40;78.50;;;;;;5023861;28;20037;-75
2021/04/04 09:27:59;;;;;;;11.38;4.43;;;10.60;76.60;;;;;;5026487;28;20040;-75
2021/04/04 09:30:36;;;;;;;9.65;4.20;;;10.00;78.10;;;;;;5029267;28;20037;-76
2021/04/04 09:33:28;;;;;;;8.57;4.75;;;9.60;78.40;;;;;;5029107;28;20081;-76
2021/04/04 09:35:59;;;;;;;11.77;5.57;;;9.80;79.50;;;;;;5026920;28;20034;-75
2021/04/04 09:38:42;;;;;;;10.07;4.43;;;9.80;80.30;;;;;;5023235;28;20041;-76
2021/04/04 09:41:10;;;;;;;11.00;4.85;;;9.70;79.90;;;;;;5021228;28;20028;-75
2021/04/04 09:43:54;;;;;;;11.00;4.72;;;9.40;79.60;;;;;;5029570;28;20116;-77
2021/04/04 09:46:20;;;;;;;10.27;5.03;;;9.60;81.00;;;;;;5022335;28;20481;-75
2021/04/04 09:48:45;;;;;;;8.43;4.93;;;9.50;80.40;;;;;;5029582;28;20037;-77
2021/04/04 09:51:14;;;;;;;7.85;4.18;;;10.20;81.30;;;;;;5029131;28;20033;-76
2021/04/04 09:53:53;;;;;;;8.52;3.95;;;10.00;80.00;;;;;;5032719;28;20029;-75
2021/04/04 09:56:29;;;;;;;12.77;5.43;;;9.70;79.80;;;;;;5034053;28;20041;-77
2021/04/04 09:58:55;;;;;;;24.80;5.90;;;10.00;78.20;;;;;;5033807;28;20383;-77
2021/04/04 10:01:26;;;;;;;8.27;4.50;;;9.90;78.70;;;;;;5034926;28;20470;-77
2021/04/04 10:04:06;;;;;;;9.85;4.50;;;9.80;80.10;;;;;;5031245;28;20028;-77
2021/04/04 10:06:36;;;;;;;13.38;4.50;;;9.80;79.70;;;;;;5031944;28;20035;-75
2021/04/04 10:09:08;;;;;;;11.43;5.00;;;9.70;79.50;;;;;;5030609;28;20651;-79
2021/04/04 10:11:35;;;;;;;9.18;4.00;;;9.80;78.70;;;;;;5029054;28;20087;-76
2021/04/04 10:14:09;;;;;;;10.55;4.63;;;9.90;81.00;;;;;;5029904;28;20029;-77
2021/04/04 10:16:35;;;;;;;10.80;4.50;;;10.00;81.10;;;;;;5031869;28;20489;-76
2021/04/04 10:19:11;;;;;;;10.68;4.60;;;10.00;78.90;;;;;;5032036;28;20018;-77
2021/04/04 10:21:39;;;;;;;9.73;5.13;;;10.10;78.90;;;;;;5031431;28;20041;-77
2021/04/04 10:24:24;;;;;;;10.52;4.53;;;10.50;79.50;;;;;;5028580;28;20092;-77
2021/04/04 10:27:28;;;;;;;9.70;4.75;;;10.60;77.50;;;;;;5032459;28;20036;-77
2021/04/04 10:30:17;;;;;;;10.07;4.70;;;10.30;78.60;;;;;;5038126;28;20033;-77
2021/04/04 10:32:47;;;;;;;12.25;5.88;;;10.60;79.20;;;;;;5031197;28;20100;-77
2021/04/04 10:35:34;;;;;;;9.88;5.00;;;10.60;78.30;;;;;;5030469;28;20025;-77
2021/04/04 10:38:11;;;;;;;9.32;4.95;;;10.40;78.00;;;;;;5030458;28;20123;-77
2021/04/04 10:40:52;;;;;;;11.15;4.78;;;10.60;79.00;;;;;;5028970;28;20030;-77
2021/04/04 10:43:22;;;;;;;14.40;5.05;;;10.60;78.00;;;;;;5030212;28;20045;-77
2021/04/04 10:45:58;;;;;;;11.05;4.78;;;10.90;80.50;;;;;;5031094;28;20040;-76
2021/04/04 10:48:24;;;;;;;8.32;4.72;;;11.40;77.00;;;;;;5030647;28;20025;-77
2021/04/04 10:50:50;;;;;;;9.23;5.15;;;11.50;77.50;;;;;;5027898;28;20479;-76
2021/04/04 10:53:20;;;;;;;8.73;4.60;;;11.50;76.50;;;;;;5028110;28;20204;-77
2021/04/04 10:55:46;;;;;;;10.35;4.30;;;11.70;79.20;;;;;;5029377;28;20029;-76
2021/04/04 10:58:21;;;;;;;8.57;4.75;;;12.20;76.10;;;;;;5030005;28;20040;-77
2021/04/04 11:00:47;;;;;;;12.10;4.93;;;12.20;77.00;;;;;;5028790;28;20474;-77
2021/04/04 11:03:13;;;;;;;9.07;4.93;;;12.10;76.60;;;;;;5030390;28;20037;-76
2021/04/04 11:05:39;;;;;;;13.20;5.18;;;11.70;76.80;;;;;;5026910;28;20029;-77
2021/04/04 11:08:06;;;;;;;8.90;4.93;;;11.90;76.60;;;;;;5028873;28;20561;-75
2021/04/04 11:10:31;;;;;;;10.02;5.90;;;12.20;77.50;;;;;;5024736;28;20106;-77
2021/04/04 11:13:00;;;;;;;12.25;5.88;;;12.70;76.60;;;;;;5028866;28;20075;-76
2021/04/04 11:15:35;;;;;;;11.57;5.72;;;12.70;75.50;;;;;;5028942;28;20463;-77
2021/04/04 11:18:11;;;;;;;11.77;6.00;;;12.40;75.30;;;;;;5029057;28;20034;-76
2021/04/04 11:20:44;;;;;;;10.52;5.18;;;12.40;75.70;;;;;;5024407;28;20065;-77
2021/04/04 11:23:11;;;;;;;12.32;5.13;;;12.50;75.80;;;;;;5026787;28;20037;-76
2021/04/04 11:25:37;;;;;;;10.10;5.28;;;12.50;76.20;;;;;;5027705;28;20669;-76
2021/04/04 11:28:21;;;;;;;11.68;5.13;;;12.90;75.10;;;;;;5027397;28;20041;-77
2021/04/04 11:30:53;;;;;;;14.48;4.97;;;12.60;74.50;;;;;;5016995;28;20033;-76
2021/04/04 11:33:25;;;;;;;9.00;4.85;;;12.50;75.00;;;;;;5027739;28;20038;-77
2021/04/04 11:36:08;;;;;;;15.18;4.68;;;12.50;74.70;;;;;;5020353;28;20025;-77
2021/04/04 11:38:59;;;;;;;7.82;4.47;;;12.40;75.20;;;;;;5013386;28;20041;-76
2021/04/04 11:41:28;;;;;;;9.07;4.05;;;12.80;74.80;;;;;;5023437;28;20033;-76
2021/04/04 11:44:46;;;;;;;9.73;5.15;;;12.70;74.70;;;;;;5027979;28;20029;-79
2021/04/04 11:47:17;;;;;;;11.57;4.90;;;13.00;74.50;;;;;;5023354;28;20041;-76
2021/04/04 11:49:47;;;;;;;14.50;4.53;;;12.90;73.20;;;;;;5026583;28;20061;-77
2021/04/04 11:52:16;;;;;;;10.60;5.28;;;13.00;74.00;;;;;;5026484;28;20037;-75
2021/04/04 11:54:45;;;;;;;9.77;4.82;;;13.10;73.10;;;;;;5026421;28;20040;-76
2021/04/04 11:57:31;;;;;;;10.05;4.63;;;13.00;73.00;;;;;;5026832;28;20034;-75
2021/04/04 12:00:09;;;;;;;7.65;4.10;;;13.00;73.10;;;;;;5026438;28;20044;-76
2021/04/04 12:02:37;;;;;;;7.97;4.40;;;13.20;74.00;;;;;;5022612;28;20036;-77
2021/04/04 12:05:10;;;;;;;10.90;5.40;;;13.30;73.70;;;;;;5030052;28;20475;-75
2021/04/04 12:08:03;;;;;;;9.73;4.63;;;12.90;72.90;;;;;;5025768;28;20033;-76
2021/04/04 12:10:40;;;;;;;8.32;4.72;;;13.20;73.30;;;;;;5021033;28;20049;-76
2021/04/04 12:13:17;;;;;;;7.95;3.92;;;13.10;72.80;;;;;;5026793;28;20159;-75
2021/04/04 12:15:42;;;;;;;9.32;5.72;;;13.30;72.50;;;;;;5023631;28;20037;-75
2021/04/04 12:18:09;;;;;;;17.85;5.25;;;13.40;71.90;;;;;;5026054;28;20348;-75
2021/04/04 12:20:35;;;;;;;8.75;4.65;;;13.30;71.40;;;;;;5007084;28;606305;-76
2021/04/04 12:23:10;;;;;;;8.20;4.50;;;13.40;71.90;;;;;;5026974;28;20040;-75
2021/04/04 12:25:36;;;;;;;8.82;4.80;;;13.60;71.90;;;;;;5027709;28;20136;-75
2021/04/04 12:28:03;;;;;;;12.63;5.43;;;13.80;71.30;;;;;;5027626;28;20550;-74
2021/04/04 12:30:30;;;;;;;10.15;5.20;;;13.60;70.90;;;;;;5028418;28;20029;-77
2021/04/04 12:32:59;;;;;;;8.05;4.82;;;13.90;70.80;;;;;;5028544;28;20463;-76
2021/04/04 12:35:25;;;;;;;11.75;5.25;;;13.70;70.70;;;;;;5023919;28;20033;-75
2021/04/04 12:37:52;;;;;;;9.07;4.90;;;13.60;70.60;;;;;;5027734;28;20033;-77
2021/04/04 12:40:18;;;;;;;14.15;5.85;;;13.80;70.50;;;;;;5026114;28;20463;-77
2021/04/04 12:42:43;;;;;;;11.88;4.53;;;13.90;70.80;;;;;;5025242;28;20108;-75
2021/04/04 12:45:14;;;;;;;7.53;4.55;;;14.10;70.50;;;;;;5022835;28;20480;-76
2021/04/04 12:47:41;;;;;;;8.55;4.32;;;14.10;70.60;;;;;;5029197;28;20179;-77
2021/04/04 12:50:08;;;;;;;9.63;4.82;;;14.20;71.60;;;;;;5029944;28;20033;-77
2021/04/04 12:52:47;;;;;;;8.10;4.30;;;14.10;69.40;;;;;;5028460;28;20029;-77
2021/04/04 12:55:26;;;;;;;8.98;4.53;;;14.20;69.00;;;;;;5024505;28;20064;-77
2021/04/04 12:58:06;;;;;;;8.35;4.55;;;14.10;70.00;;;;;;5022849;28;20022;-76
2021/04/04 13:00:40;;;;;;;10.48;4.13;;;14.00;69.50;;;;;;5027818;28;20448;-76
2021/04/04 13:03:15;;;;;;;8.43;4.45;;;14.10;69.20;;;;;;5024993;28;20025;-75
2021/04/04 13:05:46;;;;;;;9.40;4.07;;;14.10;69.10;;;;;;5028081;28;20033;-77
2021/04/04 13:08:17;;;;;;;11.70;4.70;;;14.30;69.30;;;;;;5030578;28;20037;-76
2021/04/04 13:10:45;;;;;;;10.18;4.22;;;14.40;69.20;;;;;;5025047;28;20045;-76
2021/04/04 13:13:12;;;;;;;10.65;4.25;;;14.40;69.30;;;;;;5028274;28;20075;-75
2021/04/04 13:15:38;;;;;;;10.50;4.38;;;14.60;68.60;;;;;;5027179;28;20034;-75